createdAt,value
2023-04-06T00:00:37.405Z,57.69
2023-04-06T00:03:17.814Z,57.95
2023-04-06T00:05:45.818Z,57.80
2023-04-06T00:08:12.740Z,57.92
2023-04-06T00:10:40.154Z,58.01
2023-04-06T00:13:08.614Z,57.98
2023-04-06T00:15:36.416Z,58.18
2023-04-06T00:18:03.765Z,58.30
2023-04-06T00:20:31.444Z,58.55
2023-04-06T00:22:58.576Z,58.38
2023-04-06T00:25:26.642Z,58.26
2023-04-06T00:27:53.706Z,58.28
2023-04-06T00:30:21.325Z,58.35
2023-04-06T00:32:48.273Z,58.34
2023-04-06T00:35:16.794Z,58.23
2023-04-06T00:37:43.653Z,58.09
2023-04-06T00:40:11.372Z,57.86
2023-04-06T00:42:38.704Z,58.43
2023-04-06T00:45:06.211Z,58.59
2023-04-06T00:47:34.255Z,58.16
2023-04-06T00:50:01.653Z,58.34
2023-04-06T00:52:29.166Z,58.46
2023-04-06T00:54:56.394Z,58.31
2023-04-06T00:57:23.615Z,58.33
2023-04-06T00:59:55.665Z,58.20
2023-04-06T01:02:23.443Z,58.69
2023-04-06T01:04:55.306Z,58.75
2023-04-06T01:07:28.292Z,58.33
2023-04-06T01:10:06.473Z,58.29
2023-04-06T01:12:35.664Z,58.42
2023-04-06T01:15:07.399Z,58.62
2023-04-06T01:17:39.293Z,58.80
2023-04-06T01:20:12.588Z,58.70
2023-04-06T01:22:39.792Z,58.81
2023-04-06T01:25:08.353Z,59.04
2023-04-06T01:27:44.218Z,58.94
2023-04-06T01:30:46.696Z,58.96
2023-04-06T01:33:32.107Z,58.92
2023-04-06T01:36:04.217Z,59.01
2023-04-06T01:38:31.857Z,58.69
2023-04-06T01:40:59.254Z,58.91
2023-04-06T01:43:31.022Z,59.06
2023-04-06T01:46:03.739Z,58.91
2023-04-06T01:48:34.854Z,58.26
2023-04-06T01:51:09.110Z,58.20
2023-04-06T01:53:45.296Z,58.55
2023-04-06T01:56:13.312Z,58.47
2023-04-06T01:58:47.300Z,58.16
2023-04-06T02:01:17.504Z,58.15
2023-04-06T02:03:52.166Z,58.63
2023-04-06T02:06:20.126Z,58.18
2023-04-06T02:08:47.209Z,58.42
2023-04-06T02:11:14.637Z,58.69
2023-04-06T02:13:46.570Z,58.55
2023-04-06T02:16:14.244Z,58.63
2023-04-06T02:18:41.181Z,58.91
2023-04-06T02:21:08.702Z,58.75
2023-04-06T02:23:35.866Z,58.66
2023-04-06T02:26:03.485Z,58.71
2023-04-06T02:28:30.720Z,59.20
2023-04-06T02:30:57.922Z,59.12
2023-04-06T02:33:27.706Z,59.08
2023-04-06T02:35:55.091Z,59.23
2023-04-06T02:38:22.024Z,59.40
2023-04-06T02:40:49.452Z,59.55
2023-04-06T02:43:20.869Z,59.43
2023-04-06T02:45:50.559Z,59.77
2023-04-06T02:48:18.774Z,59.65
2023-04-06T02:50:46.083Z,60.06
2023-04-06T02:53:13.663Z,60.17
2023-04-06T02:55:41.135Z,60.04
2023-04-06T02:58:08.692Z,60.27
2023-04-06T03:00:45.755Z,60.42
2023-04-06T03:03:13.312Z,60.72
2023-04-06T03:05:41.896Z,61.04
2023-04-06T03:08:10.762Z,61.49
2023-04-06T03:10:45.945Z,61.49
2023-04-06T03:13:14.422Z,61.69
2023-04-06T03:15:51.002Z,62.11
2023-04-06T03:18:25.214Z,62.52
2023-04-06T03:20:55.110Z,62.37
2023-04-06T03:23:26.400Z,62.44
2023-04-06T03:25:58.632Z,62.76
2023-04-06T03:28:25.843Z,62.92
2023-04-06T03:30:59.418Z,63.32
2023-04-06T03:34:02.326Z,63.39
2023-04-06T03:36:36.288Z,63.43
2023-04-06T03:39:04.861Z,63.66
2023-04-06T03:41:35.590Z,64.13
2023-04-06T03:44:22.992Z,64.52
2023-04-06T03:46:50.418Z,64.97
2023-04-06T03:49:18.209Z,65.00
2023-04-06T03:51:49.059Z,64.59
2023-04-06T03:54:16.688Z,64.78
2023-04-06T03:56:43.916Z,64.95
2023-04-06T03:59:11.454Z,65.15
2023-04-06T04:01:40.366Z,65.03
2023-04-06T04:04:07.752Z,64.86
2023-04-06T04:06:34.944Z,65.07
2023-04-06T04:09:02.137Z,64.88
2023-04-06T04:11:29.311Z,64.79
2023-04-06T04:13:58.581Z,64.71
2023-04-06T04:16:25.923Z,64.43
2023-04-06T04:18:53.118Z,64.65
2023-04-06T04:21:20.300Z,64.37
2023-04-06T04:23:47.876Z,64.29
2023-04-06T04:26:15.050Z,64.78
2023-04-06T04:28:44.712Z,65.05
2023-04-06T04:31:12.401Z,64.94
2023-04-06T04:33:40.466Z,65.46
2023-04-06T04:36:13.248Z,65.42
2023-04-06T04:38:43.707Z,65.84
2023-04-06T04:41:12.024Z,65.29
2023-04-06T04:43:41.943Z,65.05
2023-04-06T04:46:09.365Z,65.17
2023-04-06T04:48:42.440Z,64.92
2023-04-06T04:51:09.856Z,64.73
2023-04-06T04:53:54.999Z,64.19
2023-04-06T04:56:26.836Z,64.46
2023-04-06T04:58:59.063Z,64.41
2023-04-06T05:01:29.181Z,64.46
2023-04-06T05:03:56.823Z,63.95
2023-04-06T05:06:24.229Z,64.16
2023-04-06T05:08:51.577Z,64.27
2023-04-06T05:11:19.143Z,64.37
2023-04-06T05:13:54.551Z,64.04
2023-04-06T05:16:25.214Z,64.43
2023-04-06T05:18:53.935Z,64.59
2023-04-06T05:21:21.371Z,64.59
2023-04-06T05:23:56.691Z,64.48
2023-04-06T05:26:25.186Z,65.00
2023-04-06T05:28:56.141Z,64.46
2023-04-06T05:31:24.180Z,64.86
2023-04-06T05:33:52.043Z,65.11
2023-04-06T05:36:30.081Z,65.39
2023-04-06T05:38:57.789Z,65.12
2023-04-06T05:41:35.706Z,65.18
2023-04-06T05:44:03.462Z,64.89
2023-04-06T05:46:31.970Z,64.37
2023-04-06T05:49:00.915Z,63.70
2023-04-06T05:51:32.377Z,63.96
2023-04-06T05:54:00.511Z,64.46
2023-04-06T05:56:28.884Z,63.92
2023-04-06T05:58:56.016Z,64.12
2023-04-06T06:01:28.571Z,64.36
2023-04-06T06:03:56.039Z,63.70
2023-04-06T06:06:28.949Z,63.23
2023-04-06T06:09:09.042Z,62.57
2023-04-06T06:11:43.227Z,62.96
2023-04-06T06:14:13.347Z,62.66
2023-04-06T06:16:42.633Z,62.94
2023-04-06T06:19:13.300Z,62.35
2023-04-06T06:21:41.000Z,62.46
2023-04-06T06:24:09.119Z,62.97
2023-04-06T06:26:38.336Z,62.12
2023-04-06T06:29:08.351Z,62.85
2023-04-06T06:31:39.065Z,63.32
2023-04-06T06:34:06.858Z,62.00
2023-04-06T06:36:37.353Z,61.35
2023-04-06T06:39:08.367Z,60.76
2023-04-06T06:41:36.717Z,61.35
2023-04-06T06:44:05.134Z,61.08
2023-04-06T06:46:33.123Z,60.95
2023-04-06T06:49:01.031Z,60.59
2023-04-06T06:51:28.272Z,60.64
2023-04-06T06:53:56.149Z,60.53
2023-04-06T06:56:23.260Z,60.99
2023-04-06T06:58:52.669Z,61.01
2023-04-06T07:01:20.478Z,61.26
2023-04-06T07:03:48.319Z,61.17
2023-04-06T07:06:16.280Z,61.25
2023-04-06T07:08:43.330Z,61.20
2023-04-06T07:11:11.259Z,61.41
2023-04-06T07:13:39.380Z,61.54
2023-04-06T07:16:06.911Z,61.78
2023-04-06T07:18:36.137Z,61.18
2023-04-06T07:21:04.402Z,60.99
2023-04-06T07:23:31.568Z,60.82
2023-04-06T07:25:58.868Z,61.01
2023-04-06T07:28:26.058Z,61.29
2023-04-06T07:30:56.141Z,61.66
2023-04-06T07:33:23.825Z,61.21
2023-04-06T07:35:53.789Z,60.54
2023-04-06T07:38:22.926Z,60.53
2023-04-06T07:40:52.053Z,61.24
2023-04-06T07:43:19.587Z,61.55
2023-04-06T07:45:47.111Z,61.38
2023-04-06T07:48:17.451Z,61.71
2023-04-06T07:50:46.774Z,62.12
2023-04-06T07:53:15.208Z,62.44
2023-04-06T07:55:44.085Z,63.39
2023-04-06T07:58:11.799Z,63.73
2023-04-06T08:00:39.313Z,63.73
2023-04-06T08:03:06.430Z,63.33
2023-04-06T08:05:34.054Z,63.49
2023-04-06T08:08:01.437Z,63.91
2023-04-06T08:10:29.183Z,63.89
2023-04-06T08:12:56.132Z,64.29
2023-04-06T08:15:23.519Z,64.42
2023-04-06T08:17:50.569Z,64.13
2023-04-06T08:20:18.232Z,63.87
2023-04-06T08:22:45.257Z,63.56
2023-04-06T08:25:12.996Z,64.63
2023-04-06T08:27:40.000Z,65.03
2023-04-06T08:30:08.345Z,64.86
2023-04-06T08:32:35.316Z,65.07
2023-04-06T08:35:02.940Z,64.46
2023-04-06T08:37:30.000Z,65.41
2023-04-06T08:39:58.553Z,66.77
2023-04-06T08:42:27.383Z,68.76
2023-04-06T08:44:56.918Z,69.88
2023-04-06T08:47:24.980Z,69.48
2023-04-06T08:49:54.771Z,70.22
2023-04-06T08:52:22.240Z,70.92
2023-04-06T08:54:49.785Z,69.17
2023-04-06T08:57:17.788Z,69.52
2023-04-06T08:59:46.506Z,69.26
2023-04-06T09:02:18.842Z,69.41
2023-04-06T09:04:49.387Z,69.33
2023-04-06T09:07:17.134Z,70.06
2023-04-06T09:09:48.838Z,70.63
2023-04-06T09:12:29.434Z,70.54
2023-04-06T09:14:58.855Z,70.62
2023-04-06T09:17:31.417Z,71.21
2023-04-06T09:19:59.419Z,71.52
2023-04-06T09:22:28.134Z,72.39
2023-04-06T09:24:55.978Z,72.44
2023-04-06T09:27:38.182Z,73.50
2023-04-06T09:30:14.066Z,72.52
2023-04-06T09:32:53.511Z,73.23
2023-04-06T09:35:22.226Z,72.45
2023-04-06T09:37:51.283Z,72.36
2023-04-06T09:40:20.207Z,73.90
2023-04-06T09:42:48.582Z,75.23
2023-04-06T09:45:15.914Z,76.45
2023-04-06T09:47:47.196Z,77.50
2023-04-06T09:50:17.105Z,78.44
2023-04-06T09:52:52.731Z,77.81
2023-04-06T09:55:41.261Z,79.34
2023-04-06T09:58:13.064Z,78.63
2023-04-06T10:01:03.009Z,79.70
2023-04-06T10:03:53.443Z,80.89
2023-04-06T10:06:24.202Z,80.67
2023-04-06T10:08:52.726Z,81.83
2023-04-06T10:11:20.337Z,83.66
2023-04-06T10:13:49.962Z,82.61
2023-04-06T10:16:18.701Z,81.34
2023-04-06T10:18:52.291Z,81.09
2023-04-06T10:21:29.050Z,81.85
2023-04-06T10:24:02.296Z,84.18
2023-04-06T10:26:29.826Z,84.19
2023-04-06T10:29:03.620Z,84.81
2023-04-06T10:31:31.143Z,84.82
2023-04-06T10:33:59.856Z,85.42
2023-04-06T10:36:29.692Z,85.83
2023-04-06T10:38:59.998Z,86.55
2023-04-06T10:41:34.255Z,87.18
2023-04-06T10:44:02.316Z,86.08
2023-04-06T10:46:31.586Z,86.43
2023-04-06T10:48:58.928Z,86.05
2023-04-06T10:51:28.967Z,86.11
2023-04-06T10:53:59.001Z,86.05
2023-04-06T10:56:29.020Z,86.18
2023-04-06T10:58:57.196Z,86.30
2023-04-06T11:01:29.049Z,85.99
2023-04-06T11:04:01.302Z,85.91
2023-04-06T11:06:31.731Z,85.57
2023-04-06T11:08:59.480Z,84.62
2023-04-06T11:11:28.186Z,84.90
2023-04-06T11:13:57.838Z,84.84
2023-04-06T11:16:27.819Z,84.70
2023-04-06T11:23:27.554Z,85.70
2023-04-06T11:25:55.306Z,83.96
2023-04-06T11:28:22.446Z,84.96
2023-04-06T11:30:50.119Z,85.34
2023-04-06T11:33:26.287Z,86.72
2023-04-06T11:35:57.941Z,86.80
2023-04-06T11:38:24.919Z,86.44
2023-04-06T11:40:55.518Z,85.50
2023-04-06T11:43:31.634Z,86.09
2023-04-06T11:46:04.889Z,86.17
2023-04-06T11:48:32.563Z,86.89
2023-04-06T11:51:06.032Z,85.95
2023-04-06T11:53:34.573Z,85.20
2023-04-06T11:56:02.017Z,86.56
2023-04-06T11:58:30.899Z,85.35
2023-04-06T12:01:05.040Z,85.47
2023-04-06T12:03:32.443Z,85.81
2023-04-06T12:05:59.955Z,85.56
2023-04-06T12:08:27.391Z,84.95
2023-04-06T12:10:55.001Z,84.19
2023-04-06T12:13:22.255Z,83.77
2023-04-06T12:15:51.682Z,83.94
2023-04-06T12:18:21.107Z,83.98
2023-04-06T12:20:48.601Z,83.22
2023-04-06T12:23:15.700Z,82.97
2023-04-06T12:25:43.777Z,83.15
2023-04-06T12:28:11.604Z,83.58
2023-04-06T12:30:39.468Z,83.21
2023-04-06T12:33:06.763Z,83.24
2023-04-06T12:35:38.407Z,83.19
2023-04-06T12:38:06.019Z,84.07
2023-04-06T12:40:38.218Z,83.22
2023-04-06T12:43:05.769Z,83.65
2023-04-06T12:45:33.864Z,84.13
2023-04-06T12:48:01.311Z,84.43
2023-04-06T12:50:28.788Z,84.35
2023-04-06T12:52:56.305Z,83.05
2023-04-06T12:55:23.691Z,83.16
2023-04-06T12:57:51.263Z,83.24
2023-04-06T13:00:19.367Z,82.81
2023-04-06T13:02:48.426Z,83.61
2023-04-06T13:05:20.241Z,83.99
2023-04-06T13:07:48.295Z,84.61
2023-04-06T13:10:15.801Z,84.26
2023-04-06T13:12:43.838Z,84.82
2023-04-06T13:15:11.728Z,86.63
2023-04-06T13:17:39.375Z,86.69
2023-04-06T13:20:07.804Z,85.84
2023-04-06T13:22:34.801Z,86.26
2023-04-06T13:25:02.240Z,87.63
2023-04-06T13:27:29.644Z,88.08
2023-04-06T13:29:57.238Z,88.89
2023-04-06T13:32:24.561Z,89.65
2023-04-06T13:34:55.210Z,89.82
2023-04-06T13:37:22.463Z,89.76
2023-04-06T13:39:50.282Z,90.05
2023-04-06T13:42:17.414Z,90.34
2023-04-06T13:44:44.630Z,90.11
2023-04-06T13:47:11.984Z,90.91
2023-04-06T13:49:39.706Z,90.64
2023-04-06T13:52:07.054Z,91.06
2023-04-06T13:54:34.650Z,90.04
2023-04-06T13:57:02.368Z,89.99
2023-04-06T13:59:34.536Z,90.42
2023-04-06T14:02:10.641Z,90.68
2023-04-06T14:04:40.484Z,91.02
2023-04-06T14:07:10.054Z,90.33
2023-04-06T14:09:37.541Z,91.65
2023-04-06T14:12:04.684Z,92.17
2023-04-06T14:14:32.026Z,91.65
2023-04-06T14:16:59.252Z,91.73
2023-04-06T14:19:27.387Z,92.45
2023-04-06T14:21:54.646Z,94.65
2023-04-06T14:24:21.858Z,93.97
2023-04-06T14:26:49.051Z,93.56
2023-04-06T14:29:16.905Z,94.17
2023-04-06T14:31:47.199Z,95.21
2023-04-06T14:34:14.835Z,95.21
2023-04-06T14:36:41.931Z,95.67
2023-04-06T14:39:10.945Z,95.71
2023-04-06T14:41:38.284Z,95.30
2023-04-06T14:44:06.716Z,95.48
2023-04-06T14:46:33.888Z,95.51
2023-04-06T14:49:01.776Z,95.42
2023-04-06T14:51:29.094Z,95.82
2023-04-06T14:53:56.737Z,95.37
2023-04-06T14:56:24.894Z,95.63
2023-04-06T14:58:53.011Z,95.19
2023-04-06T15:01:21.930Z,95.09
2023-04-06T15:03:50.259Z,94.54
2023-04-06T15:06:20.502Z,94.10
2023-04-06T15:08:50.030Z,93.95
2023-04-06T15:11:17.279Z,94.03
2023-04-06T15:13:45.108Z,93.65
2023-04-06T15:16:12.525Z,93.45
2023-04-06T15:18:40.095Z,93.07
2023-04-06T15:21:08.107Z,92.94
2023-04-06T15:23:36.237Z,93.62
2023-04-06T15:26:03.529Z,93.42
2023-04-06T15:28:31.617Z,93.74
2023-04-06T15:30:58.628Z,93.88
2023-04-06T15:33:28.123Z,94.03
2023-04-06T15:35:55.915Z,94.58
2023-04-06T15:38:23.749Z,93.36
2023-04-06T15:40:50.789Z,94.04
2023-04-06T15:43:18.322Z,93.31
2023-04-06T15:45:45.480Z,94.25
2023-04-06T15:48:13.352Z,94.36
2023-04-06T15:50:40.523Z,93.46
2023-04-06T15:53:08.356Z,93.70
2023-04-06T15:55:35.698Z,93.62
2023-04-06T15:58:03.079Z,94.70
2023-04-06T16:00:30.209Z,94.31
2023-04-06T16:02:58.063Z,94.11
2023-04-06T16:05:28.332Z,94.14
2023-04-06T16:07:57.293Z,93.34
2023-04-06T16:10:24.659Z,94.01
2023-04-06T16:12:52.591Z,93.95
2023-04-06T16:15:19.674Z,94.86
2023-04-06T16:17:47.271Z,94.72
2023-04-06T16:20:16.114Z,95.83
2023-04-06T16:22:43.403Z,96.29
2023-04-06T16:25:11.630Z,96.18
2023-04-06T16:27:38.911Z,96.24
2023-04-06T16:30:06.709Z,96.73
2023-04-06T16:32:34.523Z,97.22
2023-04-06T16:35:03.344Z,97.64
2023-04-06T16:37:31.865Z,97.81
2023-04-06T16:39:59.600Z,97.59
2023-04-06T16:42:27.684Z,98.27
2023-04-06T16:44:54.967Z,97.89
2023-04-06T16:47:24.071Z,98.44
2023-04-06T16:49:52.372Z,98.41
2023-04-06T16:52:19.606Z,98.23
2023-04-06T16:54:46.934Z,98.78
2023-04-06T16:57:15.662Z,99.09
2023-04-06T16:59:42.827Z,98.96
2023-04-06T17:02:10.322Z,99.03
2023-04-06T17:04:37.767Z,98.63
2023-04-06T17:07:06.254Z,98.21
2023-04-06T17:12:06.644Z,99.66
2023-04-06T17:14:33.913Z,99.63
2023-04-06T17:17:02.469Z,100.00
2023-04-06T17:19:29.559Z,100.00
2023-04-06T17:21:57.531Z,100.00
2023-04-06T17:24:25.117Z,100.00
2023-04-06T17:26:52.266Z,100.00
2023-04-06T17:29:19.131Z,100.00
2023-04-06T17:31:46.428Z,100.00
2023-04-06T17:34:13.508Z,100.00
2023-04-06T17:36:41.107Z,100.00
2023-04-06T17:39:08.833Z,100.00
2023-04-06T17:41:36.856Z,100.00
2023-04-06T17:44:04.115Z,100.00
2023-04-06T17:46:32.108Z,100.00
2023-04-06T17:48:59.142Z,100.00
2023-04-06T17:51:27.426Z,100.00
2023-04-06T17:53:54.586Z,100.00
2023-04-06T17:56:22.240Z,100.00
2023-04-06T18:01:19.536Z,100.00
2023-04-06T18:03:46.562Z,100.00
2023-04-06T18:06:15.764Z,100.00
2023-04-06T18:08:43.437Z,100.00
2023-04-06T18:11:18.847Z,100.00
2023-04-06T18:13:46.490Z,100.00
2023-04-06T18:16:16.403Z,100.00
2023-04-06T18:18:43.682Z,100.00
2023-04-06T18:21:10.952Z,100.00
2023-04-06T18:23:38.413Z,100.00
2023-04-06T18:26:06.458Z,100.00
2023-04-06T18:28:34.224Z,100.00
2023-04-06T18:31:02.332Z,100.00
2023-04-06T18:33:29.457Z,100.00
2023-04-06T18:35:56.861Z,100.00
2023-04-06T18:38:24.357Z,100.00
2023-04-06T18:40:51.990Z,100.00
2023-04-06T18:43:19.378Z,100.00
2023-04-06T18:45:46.619Z,100.00
2023-04-06T18:48:14.120Z,100.00
2023-04-06T18:50:41.907Z,100.00
2023-04-06T18:53:08.839Z,100.00
2023-04-06T18:55:36.512Z,100.00
2023-04-06T18:58:03.833Z,100.00
2023-04-06T19:00:31.522Z,100.00
2023-04-06T19:02:58.983Z,100.00
2023-04-06T19:05:26.647Z,100.00
2023-04-06T19:07:53.468Z,100.00
2023-04-06T19:10:21.098Z,100.00
2023-04-06T19:12:48.990Z,100.00
2023-04-06T19:15:16.262Z,100.00
2023-04-06T19:17:43.291Z,100.00
2023-04-06T19:20:10.967Z,100.00
2023-04-06T19:22:38.216Z,100.00
2023-04-06T19:25:06.614Z,100.00
2023-04-06T19:27:33.914Z,100.00
2023-04-06T19:30:01.222Z,100.00
2023-04-06T19:32:30.314Z,100.00
2023-04-06T19:34:59.611Z,100.00
2023-04-06T19:37:26.815Z,100.00
2023-04-06T19:39:54.189Z,100.00
2023-04-06T19:42:21.836Z,100.00
2023-04-06T19:44:49.342Z,100.00
2023-04-06T19:47:16.372Z,100.00
2023-04-06T19:49:44.025Z,100.00
2023-04-06T19:52:12.503Z,100.00
2023-04-06T19:54:41.049Z,100.00
2023-04-06T19:57:08.252Z,100.00
2023-04-06T19:59:35.590Z,100.00
2023-04-06T20:02:02.687Z,100.00
2023-04-06T20:04:30.569Z,100.00
2023-04-06T20:06:57.916Z,100.00
2023-04-06T20:09:25.301Z,100.00
2023-04-06T20:11:54.211Z,100.00
2023-04-06T20:14:22.970Z,100.00
2023-04-06T20:16:50.997Z,100.00
2023-04-06T20:19:18.382Z,100.00
2023-04-06T20:21:45.401Z,100.00
2023-04-06T20:24:12.771Z,100.00
2023-04-06T20:26:40.172Z,100.00
2023-04-06T20:29:07.441Z,100.00
2023-04-06T20:31:34.673Z,100.00
2023-04-06T20:34:02.134Z,100.00
2023-04-06T20:36:32.521Z,100.00
2023-04-06T20:39:00.146Z,100.00
2023-04-06T20:41:26.991Z,100.00
2023-04-06T20:43:54.526Z,100.00
2023-04-06T20:46:21.770Z,100.00
2023-04-06T20:48:49.072Z,100.00
2023-04-06T20:51:21.276Z,100.00
2023-04-06T20:53:48.758Z,100.00
2023-04-06T20:56:15.814Z,100.00
2023-04-06T20:58:43.096Z,100.00
2023-04-06T21:01:17.396Z,100.00
2023-04-06T21:03:45.543Z,100.00
2023-04-06T21:06:12.734Z,100.00
2023-04-06T21:08:40.472Z,100.00
2023-04-06T21:11:07.631Z,100.00
2023-04-06T21:13:34.896Z,100.00
2023-04-06T21:16:03.247Z,100.00
2023-04-06T21:18:34.250Z,100.00
2023-04-06T21:21:01.504Z,100.00
2023-04-06T21:23:28.661Z,100.00
2023-04-06T21:25:57.422Z,100.00
2023-04-06T21:28:26.071Z,100.00
2023-04-06T21:30:54.841Z,100.00
2023-04-06T21:33:22.627Z,100.00
2023-04-06T21:35:50.325Z,100.00
2023-04-06T21:38:17.603Z,100.00
2023-04-06T21:40:45.052Z,100.00
2023-04-06T21:43:12.822Z,100.00
2023-04-06T21:45:40.282Z,100.00
2023-04-06T21:48:07.609Z,100.00
2023-04-06T21:50:39.506Z,100.00
2023-04-06T21:53:07.231Z,100.00
2023-04-06T21:55:34.208Z,100.00
2023-04-06T21:58:01.685Z,100.00
2023-04-06T22:00:28.458Z,100.00
2023-04-06T22:02:56.176Z,100.00
2023-04-06T22:05:23.744Z,100.00
2023-04-06T22:07:52.211Z,100.00
2023-04-06T22:10:19.785Z,100.00
2023-04-06T22:12:49.062Z,100.00
2023-04-06T22:15:16.585Z,100.00
2023-04-06T22:17:43.751Z,100.00
2023-04-06T22:20:11.252Z,100.00
2023-04-06T22:22:38.996Z,100.00
2023-04-06T22:25:06.542Z,100.00
2023-04-06T22:27:33.659Z,100.00
2023-04-06T22:30:00.626Z,100.00
2023-04-06T22:32:28.029Z,100.00
2023-04-06T22:34:55.448Z,100.00
2023-04-06T22:37:22.636Z,100.00
2023-04-06T22:39:49.484Z,100.00
2023-04-06T22:42:16.710Z,100.00
2023-04-06T22:44:43.582Z,100.00
2023-04-06T22:47:12.112Z,100.00
2023-04-06T22:49:39.422Z,100.00
2023-04-06T22:52:06.925Z,100.00
2023-04-06T22:54:34.199Z,100.00
2023-04-06T22:57:02.985Z,100.00
2023-04-06T22:59:29.941Z,100.00
2023-04-06T23:01:57.605Z,100.00
2023-04-06T23:04:24.716Z,100.00
2023-04-06T23:06:52.262Z,100.00
2023-04-06T23:09:19.132Z,100.00
2023-04-06T23:11:46.788Z,100.00
2023-04-06T23:14:13.947Z,100.00
2023-04-06T23:16:41.610Z,100.00
2023-04-06T23:19:08.525Z,100.00
2023-04-06T23:21:36.181Z,100.00
2023-04-06T23:24:03.306Z,100.00
2023-04-06T23:26:31.076Z,100.00
2023-04-06T23:28:57.962Z,100.00
2023-04-06T23:31:25.213Z,100.00
2023-04-06T23:33:52.327Z,100.00
2023-04-06T23:36:19.477Z,100.00
2023-04-06T23:38:46.357Z,100.00
2023-04-06T23:41:16.162Z,100.00
2023-04-06T23:43:43.204Z,100.00
2023-04-06T23:46:10.367Z,100.00
2023-04-06T23:48:39.624Z,100.00
2023-04-06T23:51:06.781Z,100.00
2023-04-06T23:53:33.580Z,100.00
2023-04-06T23:56:00.953Z,100.00
2023-04-06T23:58:27.836Z,100.00
